createdAt,value
2023-02-05T00:00:28.865Z,-4.05
2023-02-05T00:02:57.217Z,-4.10
2023-02-05T00:05:25.599Z,-4.20
2023-02-05T00:07:54.496Z,-4.29
2023-02-05T00:10:22.535Z,-4.39
2023-02-05T00:12:50.602Z,-4.47
2023-02-05T00:15:18.880Z,-4.57
2023-02-05T00:17:48.257Z,-4.66
2023-02-05T00:20:16.363Z,-4.73
2023-02-05T00:22:44.600Z,-4.77
2023-02-05T00:25:12.959Z,-4.85
2023-02-05T00:27:40.992Z,-4.88
2023-02-05T00:30:10.785Z,-4.89
2023-02-05T00:32:38.834Z,-4.98
2023-02-05T00:35:08.722Z,-5.02
2023-02-05T00:37:36.801Z,-5.12
2023-02-05T00:40:05.958Z,-5.19
2023-02-05T00:42:34.756Z,-5.22
2023-02-05T00:45:05.098Z,-5.35
2023-02-05T00:47:35.223Z,-5.42
2023-02-05T00:50:03.725Z,-5.47
2023-02-05T00:52:33.100Z,-5.47
2023-02-05T00:55:01.420Z,-5.49
2023-02-05T00:57:29.823Z,-5.53
2023-02-05T00:59:57.941Z,-5.57
2023-02-05T01:02:26.187Z,-5.66
2023-02-05T01:04:54.258Z,-5.70
2023-02-05T01:07:23.338Z,-5.71
2023-02-05T01:09:53.247Z,-5.70
2023-02-05T01:12:21.753Z,-5.73
2023-02-05T01:14:49.862Z,-5.69
2023-02-05T01:17:18.929Z,-5.67
2023-02-05T01:19:47.144Z,-5.71
2023-02-05T01:22:16.075Z,-5.80
2023-02-05T01:24:46.703Z,-5.80
2023-02-05T01:27:16.306Z,-5.80
2023-02-05T01:29:44.989Z,-5.80
2023-02-05T01:32:13.114Z,-5.87
2023-02-05T01:34:42.217Z,-5.83
2023-02-05T01:37:10.663Z,-5.76
2023-02-05T01:39:41.138Z,-5.71
2023-02-05T01:42:19.346Z,-5.66
2023-02-05T01:45:20.600Z,-5.60
2023-02-05T01:47:49.124Z,-5.46
2023-02-05T01:50:18.577Z,-5.35
2023-02-05T01:52:47.082Z,-5.29
2023-02-05T01:55:15.822Z,-5.35
2023-02-05T01:57:45.691Z,-5.49
2023-02-05T02:00:14.854Z,-5.50
2023-02-05T02:02:42.981Z,-5.36
2023-02-05T02:05:13.974Z,-5.37
2023-02-05T02:07:42.370Z,-5.42
2023-02-05T02:10:12.083Z,-5.47
2023-02-05T02:12:43.010Z,-5.53
2023-02-05T02:15:15.912Z,-5.55
2023-02-05T02:17:47.015Z,-5.55
2023-02-05T02:20:17.748Z,-5.59
2023-02-05T02:22:58.506Z,-5.67
2023-02-05T02:25:47.972Z,-5.76
2023-02-05T02:28:23.737Z,-5.83
2023-02-05T02:30:59.981Z,-5.86
2023-02-05T02:33:32.409Z,-5.97
2023-02-05T02:36:02.419Z,-6.04
2023-02-05T02:38:33.373Z,-6.11
2023-02-05T02:41:05.252Z,-6.09
2023-02-05T02:43:35.822Z,-6.16
2023-02-05T02:46:06.879Z,-6.14
2023-02-05T02:48:37.031Z,-6.22
2023-02-05T02:51:07.381Z,-6.35
2023-02-05T02:53:37.924Z,-6.35
2023-02-05T02:56:07.637Z,-6.25
2023-02-05T02:58:40.306Z,-6.19
2023-02-05T03:01:10.140Z,-6.12
2023-02-05T03:03:42.092Z,-6.09
2023-02-05T03:06:11.262Z,-5.99
2023-02-05T03:08:44.914Z,-5.87
2023-02-05T03:11:15.338Z,-5.80
2023-02-05T03:13:45.989Z,-5.81
2023-02-05T03:16:16.206Z,-5.90
2023-02-05T03:18:44.733Z,-5.98
2023-02-05T03:21:17.800Z,-6.05
2023-02-05T03:23:46.008Z,-6.07
2023-02-05T03:26:26.207Z,-6.01
2023-02-05T03:28:56.599Z,-5.94
2023-02-05T03:31:29.072Z,-5.78
2023-02-05T03:34:11.201Z,-5.74
2023-02-05T03:36:49.524Z,-5.66
2023-02-05T03:39:26.093Z,-5.66
2023-02-05T03:42:02.243Z,-5.64
2023-02-05T03:44:46.131Z,-5.57
2023-02-05T03:47:21.878Z,-5.60
2023-02-05T03:49:54.481Z,-5.62
2023-02-05T03:52:28.749Z,-5.67
2023-02-05T03:55:04.788Z,-5.66
2023-02-05T03:57:36.832Z,-5.64
2023-02-05T04:00:08.715Z,-5.55
2023-02-05T04:02:36.816Z,-5.46
2023-02-05T04:05:05.494Z,-5.26
2023-02-05T04:07:33.558Z,-5.18
2023-02-05T04:10:02.055Z,-5.16
2023-02-05T04:12:30.304Z,-5.11
2023-02-05T04:14:58.418Z,-5.08
2023-02-05T04:17:28.119Z,-5.11
2023-02-05T04:19:57.510Z,-5.13
2023-02-05T04:22:27.398Z,-5.19
2023-02-05T04:24:55.664Z,-5.29
2023-02-05T04:27:24.948Z,-5.35
2023-02-05T04:29:54.612Z,-5.42
2023-02-05T04:32:23.785Z,-5.53
2023-02-05T04:34:53.985Z,-5.53
2023-02-05T04:37:22.155Z,-5.64
2023-02-05T04:39:50.649Z,-5.67
2023-02-05T04:42:18.690Z,-5.67
2023-02-05T04:44:46.790Z,-5.59
2023-02-05T04:47:15.133Z,-5.50
2023-02-05T04:49:43.807Z,-5.55
2023-02-05T04:52:13.458Z,-5.47
2023-02-05T04:54:42.290Z,-5.46
2023-02-05T04:57:11.616Z,-5.50
2023-02-05T04:59:40.161Z,-5.52
2023-02-05T05:02:08.888Z,-5.52
2023-02-05T05:04:38.564Z,-5.47
2023-02-05T05:07:06.685Z,-5.42
2023-02-05T05:09:37.361Z,-5.36
2023-02-05T05:12:07.644Z,-5.35
2023-02-05T05:14:35.842Z,-5.30
2023-02-05T05:17:04.366Z,-5.30
2023-02-05T05:19:33.281Z,-5.37
2023-02-05T05:22:01.429Z,-5.43
2023-02-05T05:24:29.408Z,-5.47
2023-02-05T05:27:00.681Z,-5.52
2023-02-05T05:29:29.197Z,-5.50
2023-02-05T05:31:57.297Z,-5.47
2023-02-05T05:34:25.844Z,-5.50
2023-02-05T05:36:54.028Z,-5.57
2023-02-05T05:39:39.893Z,-5.62
2023-02-05T05:42:30.090Z,-5.57
2023-02-05T05:44:58.190Z,-5.43
2023-02-05T05:47:26.314Z,-5.29
2023-02-05T05:49:54.684Z,-5.18
2023-02-05T05:52:23.007Z,-5.04
2023-02-05T05:54:51.181Z,-4.98
2023-02-05T05:57:21.197Z,-4.92
2023-02-05T05:59:49.360Z,-4.89
2023-02-05T06:02:17.351Z,-4.87
2023-02-05T06:04:45.962Z,-4.83
2023-02-05T06:07:15.052Z,-4.81
2023-02-05T06:09:45.795Z,-4.88
2023-02-05T06:12:17.768Z,-4.91
2023-02-05T06:14:49.889Z,-4.97
2023-02-05T06:17:17.925Z,-5.01
2023-02-05T06:19:47.886Z,-5.02
2023-02-05T06:22:16.162Z,-4.95
2023-02-05T06:24:44.183Z,-4.87
2023-02-05T06:27:12.189Z,-4.74
2023-02-05T06:29:40.234Z,-4.68
2023-02-05T06:32:09.632Z,-4.57
2023-02-05T06:34:37.900Z,-4.53
2023-02-05T06:37:06.120Z,-4.49
2023-02-05T06:39:34.196Z,-4.45
2023-02-05T06:42:03.294Z,-4.45
2023-02-05T06:44:31.521Z,-4.42
2023-02-05T06:47:00.432Z,-4.39
2023-02-05T06:49:29.984Z,-4.33
2023-02-05T06:51:58.369Z,-4.30
2023-02-05T06:54:27.454Z,-4.22
2023-02-05T06:56:59.922Z,-4.13
2023-02-05T06:59:28.012Z,-4.03
2023-02-05T07:01:56.206Z,-3.99
2023-02-05T07:04:24.451Z,-3.95
2023-02-05T07:06:55.462Z,-3.94
2023-02-05T07:09:24.536Z,-3.94
2023-02-05T07:11:53.877Z,-3.99
2023-02-05T07:14:22.517Z,-3.98
2023-02-05T07:16:52.794Z,-3.98
2023-02-05T07:19:21.085Z,-3.98
2023-02-05T07:21:49.127Z,-3.94
2023-02-05T07:24:19.325Z,-3.89
2023-02-05T07:26:47.566Z,-3.91
2023-02-05T07:29:15.866Z,-3.87
2023-02-05T07:31:44.679Z,-3.85
2023-02-05T07:34:13.529Z,-3.88
2023-02-05T07:36:41.516Z,-3.79
2023-02-05T07:39:09.689Z,-3.60
2023-02-05T07:41:40.351Z,-3.43
2023-02-05T07:44:10.038Z,-3.20
2023-02-05T07:46:44.567Z,-3.10
2023-02-05T07:49:13.200Z,-3.13
2023-02-05T07:51:41.177Z,-3.19
2023-02-05T07:54:09.931Z,-3.24
2023-02-05T07:56:39.329Z,-3.27
2023-02-05T07:59:07.718Z,-3.27
2023-02-05T08:01:36.343Z,-3.29
2023-02-05T08:04:04.655Z,-3.26
2023-02-05T08:06:36.449Z,-3.26
2023-02-05T08:09:07.593Z,-3.20
2023-02-05T08:11:35.901Z,-3.16
2023-02-05T08:14:09.396Z,-3.15
2023-02-05T08:16:37.886Z,-3.12
2023-02-05T08:19:08.097Z,-3.08
2023-02-05T08:21:36.231Z,-3.08
2023-02-05T08:24:04.512Z,-3.10
2023-02-05T08:26:32.923Z,-3.08
2023-02-05T08:29:01.734Z,-3.03
2023-02-05T08:31:31.274Z,-3.00
2023-02-05T08:34:00.284Z,-2.96
2023-02-05T08:36:29.656Z,-2.92
2023-02-05T08:38:58.594Z,-2.89
2023-02-05T08:41:27.048Z,-2.87
2023-02-05T08:43:55.119Z,-2.87
2023-02-05T08:46:33.840Z,-2.82
2023-02-05T08:49:13.312Z,-2.82
2023-02-05T08:51:41.661Z,-2.81
2023-02-05T08:54:13.358Z,-2.79
2023-02-05T08:56:42.311Z,-2.75
2023-02-05T08:59:11.096Z,-2.71
2023-02-05T09:01:41.708Z,-2.65
2023-02-05T09:04:11.769Z,-2.64
2023-02-05T09:06:41.615Z,-2.58
2023-02-05T09:09:10.625Z,-2.51
2023-02-05T09:11:39.361Z,-2.49
2023-02-05T09:14:07.837Z,-2.50
2023-02-05T09:16:36.430Z,-2.41
2023-02-05T09:19:04.534Z,-2.36
2023-02-05T09:21:32.760Z,-2.30
2023-02-05T09:24:06.678Z,-2.26
2023-02-05T09:26:35.908Z,-2.22
2023-02-05T09:29:04.657Z,-2.16
2023-02-05T09:31:33.340Z,-2.13
2023-02-05T09:34:05.501Z,-2.16
2023-02-05T09:36:34.115Z,-2.09
2023-02-05T09:39:15.923Z,-2.05
2023-02-05T09:41:57.391Z,-1.96
2023-02-05T09:44:41.373Z,-1.91
2023-02-05T09:47:14.592Z,-1.83
2023-02-05T09:49:47.178Z,-1.78
2023-02-05T09:52:19.794Z,-1.74
2023-02-05T09:54:55.109Z,-1.75
2023-02-05T09:57:34.087Z,-1.67
2023-02-05T10:00:03.093Z,-1.58
2023-02-05T10:02:37.715Z,-1.51
2023-02-05T10:05:14.641Z,-1.43
2023-02-05T10:07:50.914Z,-1.29
2023-02-05T10:10:25.315Z,-1.21
2023-02-05T10:13:04.746Z,-1.12
2023-02-05T10:15:52.424Z,-1.06
2023-02-05T10:18:25.569Z,-1.02
2023-02-05T10:21:00.095Z,-0.91
2023-02-05T10:23:38.263Z,-0.85
2023-02-05T10:26:12.033Z,-0.73
2023-02-05T10:28:59.200Z,-0.71
2023-02-05T10:31:42.083Z,-0.61
2023-02-05T10:34:23.704Z,-0.54
2023-02-05T10:36:54.025Z,-0.51
2023-02-05T10:39:24.786Z,-0.46
2023-02-05T10:41:59.257Z,-0.45
2023-02-05T10:44:34.169Z,-0.44
2023-02-05T10:47:07.574Z,-0.34
2023-02-05T10:49:45.058Z,-0.30
2023-02-05T10:52:14.732Z,-0.25
2023-02-05T10:54:42.973Z,-0.24
2023-02-05T10:57:18.863Z,-0.15
2023-02-05T10:59:54.013Z,-0.07
2023-02-05T11:02:24.582Z,-0.07
2023-02-05T11:04:56.504Z,-0.04
2023-02-05T11:07:27.480Z,0.07
2023-02-05T11:09:55.882Z,0.13
2023-02-05T11:12:29.657Z,0.17
2023-02-05T11:14:59.874Z,0.24
2023-02-05T11:17:31.390Z,0.25
2023-02-05T11:20:02.620Z,0.27
2023-02-05T11:22:33.357Z,0.27
2023-02-05T11:25:20.361Z,0.27
2023-02-05T11:27:54.374Z,0.31
2023-02-05T11:30:50.436Z,0.34
2023-02-05T11:33:25.965Z,0.38
2023-02-05T11:35:56.642Z,0.48
2023-02-05T11:38:31.196Z,0.51
2023-02-05T11:41:01.738Z,0.52
2023-02-05T11:43:32.510Z,0.55
2023-02-05T11:46:02.311Z,0.51
2023-02-05T11:48:39.501Z,0.58
2023-02-05T11:51:10.223Z,0.64
2023-02-05T11:53:39.988Z,0.72
2023-02-05T11:56:10.886Z,0.70
2023-02-05T11:58:40.177Z,0.72
2023-02-05T12:01:24.204Z,0.77
2023-02-05T12:04:00.745Z,0.82
2023-02-05T12:06:35.217Z,0.85
2023-02-05T12:09:03.860Z,0.86
2023-02-05T12:11:54.767Z,0.86
2023-02-05T12:14:38.383Z,0.83
2023-02-05T12:17:17.752Z,0.86
2023-02-05T12:19:51.748Z,0.83
2023-02-05T12:22:30.269Z,0.89
2023-02-05T12:25:13.214Z,0.97
2023-02-05T12:27:56.820Z,1.01
2023-02-05T12:30:45.008Z,1.10
2023-02-05T12:33:40.305Z,1.19
2023-02-05T12:36:19.328Z,1.26
2023-02-05T12:38:56.275Z,1.27
2023-02-05T12:41:32.143Z,1.26
2023-02-05T12:44:07.737Z,1.22
2023-02-05T12:47:00.959Z,1.19
2023-02-05T12:49:44.053Z,1.19
2023-02-05T12:52:22.988Z,1.13
2023-02-05T12:55:06.487Z,1.07
2023-02-05T12:57:44.408Z,1.10
2023-02-05T13:00:17.223Z,1.13
2023-02-05T13:02:53.883Z,1.14
2023-02-05T13:05:27.249Z,1.13
2023-02-05T13:08:00.140Z,1.13
2023-02-05T13:10:28.708Z,1.06
2023-02-05T13:13:01.008Z,1.00
2023-02-05T13:15:31.739Z,1.01
2023-02-05T13:18:03.080Z,0.99
2023-02-05T13:20:47.978Z,0.94
2023-02-05T13:23:39.197Z,0.89
2023-02-05T13:26:26.126Z,0.89
2023-02-05T13:28:59.223Z,0.92
2023-02-05T13:31:30.980Z,0.92
2023-02-05T13:34:05.048Z,0.92
2023-02-05T13:37:12.704Z,0.90
2023-02-05T13:40:07.875Z,0.82
2023-02-05T13:42:49.961Z,0.80
2023-02-05T13:45:35.384Z,0.75
2023-02-05T13:48:14.074Z,0.69
2023-02-05T13:51:10.320Z,0.65
2023-02-05T13:53:53.589Z,0.62
2023-02-05T13:57:03.169Z,0.65
2023-02-05T13:59:37.704Z,0.66
2023-02-05T14:02:27.760Z,0.70
2023-02-05T14:04:56.819Z,0.69
2023-02-05T14:07:30.437Z,0.69
2023-02-05T14:10:01.128Z,0.70
2023-02-05T14:12:32.145Z,0.69
2023-02-05T14:15:26.378Z,0.70
2023-02-05T14:17:56.387Z,0.75
2023-02-05T14:20:34.284Z,0.73
2023-02-05T14:23:04.577Z,0.72
2023-02-05T14:26:11.817Z,0.70
2023-02-05T14:28:49.542Z,0.70
2023-02-05T14:31:50.687Z,0.66
2023-02-05T14:34:45.624Z,0.69
2023-02-05T14:37:36.721Z,0.68
2023-02-05T14:40:23.540Z,0.65
2023-02-05T14:42:57.077Z,0.65
2023-02-05T14:45:31.018Z,0.69
2023-02-05T14:47:59.804Z,0.65
2023-02-05T14:50:30.176Z,0.62
2023-02-05T14:53:00.566Z,0.58
2023-02-05T14:55:36.859Z,0.55
2023-02-05T14:58:06.918Z,0.48
2023-02-05T15:00:37.177Z,0.46
2023-02-05T15:03:35.044Z,0.42
2023-02-05T15:06:06.529Z,0.42
2023-02-05T15:08:44.608Z,0.38
2023-02-05T15:11:24.578Z,0.34
2023-02-05T15:14:38.152Z,0.33
2023-02-05T15:17:37.842Z,0.29
2023-02-05T15:20:26.106Z,0.22
2023-02-05T15:23:05.513Z,0.17
2023-02-05T15:25:42.600Z,0.08
2023-02-05T15:28:22.731Z,0.04
2023-02-05T15:30:59.888Z,-0.03
2023-02-05T15:33:45.694Z,-0.07
2023-02-05T15:36:20.710Z,-0.10
2023-02-05T15:38:53.395Z,-0.09
2023-02-05T15:41:24.733Z,-0.15
2023-02-05T15:44:05.240Z,-0.24
2023-02-05T15:49:32.506Z,-0.33
2023-02-05T15:52:01.679Z,-0.42
2023-02-05T15:54:30.315Z,-0.48
2023-02-05T15:57:02.279Z,-0.54
2023-02-05T15:59:33.133Z,-0.54
2023-02-05T16:02:06.873Z,-0.58
2023-02-05T16:04:37.414Z,-0.61
2023-02-05T16:07:23.465Z,-0.69
2023-02-05T16:09:53.973Z,-0.75
2023-02-05T16:12:22.175Z,-0.76
2023-02-05T16:15:03.295Z,-0.88
2023-02-05T16:17:38.819Z,-0.92
2023-02-05T16:20:17.061Z,-0.95
2023-02-05T16:23:00.672Z,-0.97
2023-02-05T16:25:36.078Z,-1.00
2023-02-05T16:28:07.517Z,-1.03
2023-02-05T16:30:42.846Z,-1.06
2023-02-05T16:33:20.986Z,-1.07
2023-02-05T16:35:51.101Z,-1.13
2023-02-05T16:44:29.029Z,-1.29
2023-02-05T16:47:36.534Z,-1.27
2023-02-05T16:50:38.216Z,-1.27
2023-02-05T16:53:14.961Z,-1.27
2023-02-05T16:55:46.416Z,-1.26
2023-02-05T16:58:18.689Z,-1.31
2023-02-05T17:00:54.677Z,-1.33
2023-02-05T17:03:25.958Z,-1.36
2023-02-05T17:05:57.498Z,-1.36
2023-02-05T17:08:30.970Z,-1.40
2023-02-05T17:11:03.107Z,-1.46
2023-02-05T17:13:35.303Z,-1.48
2023-02-05T17:16:25.593Z,-1.57
2023-02-05T17:18:56.786Z,-1.58
2023-02-05T17:21:28.614Z,-1.65
2023-02-05T17:23:59.275Z,-1.67
2023-02-05T17:26:30.864Z,-1.62
2023-02-05T17:29:02.232Z,-1.60
2023-02-05T17:31:31.209Z,-1.54
2023-02-05T17:34:01.697Z,-1.54
2023-02-05T17:36:31.775Z,-1.57
2023-02-05T17:39:00.009Z,-1.62
2023-02-05T17:41:47.224Z,-1.64
2023-02-05T17:44:17.583Z,-1.68
2023-02-05T17:46:49.018Z,-1.71
2023-02-05T17:49:18.458Z,-1.68
2023-02-05T17:51:46.582Z,-1.71
2023-02-05T17:54:16.855Z,-1.77
2023-02-05T17:56:50.054Z,-1.88
2023-02-05T17:59:19.861Z,-1.96
2023-02-05T18:01:48.927Z,-1.95
2023-02-05T18:04:19.391Z,-2.03
2023-02-05T18:06:50.226Z,-2.13
2023-02-05T18:09:19.997Z,-2.23
2023-02-05T18:11:48.124Z,-2.32
2023-02-05T18:14:16.469Z,-2.40
2023-02-05T18:16:44.883Z,-2.51
2023-02-05T18:19:13.818Z,-2.67
2023-02-05T18:21:44.063Z,-2.79
2023-02-05T18:24:12.582Z,-2.84
2023-02-05T18:26:41.825Z,-2.82
2023-02-05T18:29:11.185Z,-2.78
2023-02-05T18:31:39.699Z,-2.79
2023-02-05T18:34:11.048Z,-2.77
2023-02-05T18:36:40.044Z,-2.82
2023-02-05T18:39:10.736Z,-2.93
2023-02-05T18:41:39.440Z,-3.05
2023-02-05T18:44:07.877Z,-3.12
2023-02-05T18:46:39.914Z,-3.16
2023-02-05T18:49:09.803Z,-3.27
2023-02-05T18:51:39.185Z,-3.36
2023-02-05T18:54:10.888Z,-3.47
2023-02-05T18:56:40.318Z,-3.50
2023-02-05T18:59:09.977Z,-3.60
2023-02-05T19:01:40.267Z,-3.70
2023-02-05T19:04:10.267Z,-3.78
2023-02-05T19:06:38.762Z,-3.78
2023-02-05T19:09:08.339Z,-3.75
2023-02-05T19:11:40.965Z,-3.70
2023-02-05T19:14:12.123Z,-3.64
2023-02-05T19:16:41.973Z,-3.63
2023-02-05T19:19:12.249Z,-3.66
2023-02-05T19:21:42.609Z,-3.61
2023-02-05T19:24:15.513Z,-3.64
2023-02-05T19:26:47.911Z,-3.66
2023-02-05T19:29:19.376Z,-3.70
2023-02-05T19:31:48.273Z,-3.74
2023-02-05T19:34:17.695Z,-3.82
2023-02-05T19:36:47.418Z,-3.84
2023-02-05T19:39:16.902Z,-3.95
2023-02-05T19:41:49.144Z,-4.09
2023-02-05T19:44:17.585Z,-4.19
2023-02-05T19:46:49.581Z,-4.23
2023-02-05T19:49:18.094Z,-4.33
2023-02-05T19:51:48.822Z,-4.40
2023-02-05T19:54:18.949Z,-4.37
2023-02-05T19:56:50.584Z,-4.28
2023-02-05T19:59:21.009Z,-4.20
2023-02-05T20:01:49.985Z,-4.12
2023-02-05T20:04:21.240Z,-4.03
2023-02-05T20:06:52.154Z,-4.05
2023-02-05T20:09:21.841Z,-4.09
2023-02-05T20:11:54.447Z,-4.20
2023-02-05T20:14:23.562Z,-4.32
2023-02-05T20:16:52.093Z,-4.36
2023-02-05T20:19:20.830Z,-4.53
2023-02-05T20:21:50.999Z,-4.64
2023-02-05T20:24:19.351Z,-4.71
2023-02-05T20:26:48.898Z,-4.80
2023-02-05T20:29:39.825Z,-4.89
2023-02-05T20:32:08.918Z,-4.95
2023-02-05T20:34:39.619Z,-4.95
2023-02-05T20:37:12.026Z,-4.99
2023-02-05T20:39:42.748Z,-5.08
2023-02-05T20:42:14.495Z,-5.18
2023-02-05T20:44:45.193Z,-5.19
2023-02-05T20:47:15.592Z,-5.28
2023-02-05T20:49:43.838Z,-5.23
2023-02-05T20:52:12.908Z,-5.20
2023-02-05T20:54:42.842Z,-5.25
2023-02-05T20:57:10.807Z,-5.25
2023-02-05T20:59:39.002Z,-5.13
2023-02-05T21:02:11.030Z,-5.07
2023-02-05T21:04:39.294Z,-5.08
2023-02-05T21:07:07.788Z,-5.12
2023-02-05T21:09:35.787Z,-5.18
2023-02-05T21:12:03.907Z,-5.18
2023-02-05T21:14:32.572Z,-5.28
2023-02-05T21:17:00.952Z,-5.33
2023-02-05T21:19:30.344Z,-5.43
2023-02-05T21:21:59.316Z,-5.42
2023-02-05T21:24:28.897Z,-5.36
2023-02-05T21:26:57.168Z,-5.26
2023-02-05T21:29:26.089Z,-5.25
2023-02-05T21:31:55.621Z,-5.26
2023-02-05T21:34:26.352Z,-5.32
2023-02-05T21:36:56.425Z,-5.40
2023-02-05T21:39:25.718Z,-5.46
2023-02-05T21:41:54.515Z,-5.49
2023-02-05T21:44:23.160Z,-5.57
2023-02-05T21:46:53.276Z,-5.64
2023-02-05T21:49:21.453Z,-5.66
2023-02-05T21:51:50.461Z,-5.73
2023-02-05T21:54:25.332Z,-5.74
2023-02-05T21:56:54.470Z,-5.77
2023-02-05T21:59:24.608Z,-5.93
2023-02-05T22:01:53.513Z,-5.99
2023-02-05T22:04:22.593Z,-5.94
2023-02-05T22:06:51.253Z,-5.84
2023-02-05T22:09:20.646Z,-5.84
2023-02-05T22:11:50.322Z,-5.98
2023-02-05T22:14:18.700Z,-5.99
2023-02-05T22:16:46.902Z,-6.02
2023-02-05T22:19:15.455Z,-5.99
2023-02-05T22:21:44.110Z,-5.98
2023-02-05T22:24:15.794Z,-5.95
2023-02-05T22:26:46.034Z,-5.99
2023-02-05T22:29:16.793Z,-6.08
2023-02-05T22:31:46.496Z,-6.11
2023-02-05T22:34:14.579Z,-6.16
2023-02-05T22:36:42.930Z,-6.16
2023-02-05T22:39:14.089Z,-6.08
2023-02-05T22:41:43.732Z,-5.91
2023-02-05T22:44:13.162Z,-5.90
2023-02-05T22:46:42.789Z,-5.87
2023-02-05T22:49:12.775Z,-5.86
2023-02-05T22:51:41.602Z,-5.84
2023-02-05T22:54:13.175Z,-5.81
2023-02-05T22:56:41.193Z,-5.67
2023-02-05T22:59:10.810Z,-5.62
2023-02-05T23:01:45.110Z,-5.56
2023-02-05T23:04:14.362Z,-5.52
2023-02-05T23:06:45.505Z,-5.56
2023-02-05T23:09:16.382Z,-5.66
2023-02-05T23:11:45.557Z,-5.70
2023-02-05T23:14:17.921Z,-5.66
2023-02-05T23:16:48.223Z,-5.49
2023-02-05T23:19:18.520Z,-5.36
2023-02-05T23:21:47.358Z,-5.29
2023-02-05T23:24:16.884Z,-5.26
2023-02-05T23:26:48.480Z,-5.28
2023-02-05T23:29:17.185Z,-5.35
2023-02-05T23:31:45.316Z,-5.42
2023-02-05T23:34:14.960Z,-5.36
2023-02-05T23:36:42.937Z,-5.25
2023-02-05T23:39:10.980Z,-5.13
2023-02-05T23:41:40.038Z,-5.08
2023-02-05T23:44:12.011Z,-5.09
2023-02-05T23:46:41.302Z,-5.07
2023-02-05T23:49:10.135Z,-5.09
2023-02-05T23:51:43.465Z,-5.07
2023-02-05T23:54:13.239Z,-5.12
2023-02-05T23:56:41.577Z,-5.13
2023-02-05T23:59:11.640Z,-5.18
